• Join FlightAware (Why Join?)
  • Login
  • US Flag 
03:09AM EDT


 

Airport Tracker/Info


-or-


 

Live Flight TrackerFlight Track Log ✈ ASQ5827 ✈ 09-May-2013 ✈ KMCI - KORD

Flight Track Log - Related Links

Times and Time Zones

All times are in EDT time to prevent confusion due to time zone crossing. See the ASQ5827 flight status page for this flight to view local times or setup timezone preferences in your user account.

Time Position Orientation Groundspeed Altitude Reporting Facility
EDT Latitude Longitude Course Direction KTS MPH feet Rate Location/Type
07:08AM 39.3000 -94.7167 113° Southeast 157 181 1,700  Level Kansas City TRACON
07:09AM 39.2833 -94.6667 113° Southeast 207 238 3,300 1,560 Climbing Kansas City TRACON
07:10AM 39.3342 -94.5836 52° Northeast 268 308 5,200 1,800 Climbing Kansas City Center
07:11AM 39.3936 -94.5211 39° Northeast 287 330 7,400 2,160 Climbing Kansas City Center
07:12AM 39.4667 -94.4456 39° Northeast 303 349 9,600 1,680 Climbing Kansas City Center
07:13AM 39.5336 -94.3767 38° Northeast 321 369 10,800 1,020 Climbing Kansas City Center
07:14AM 39.6117 -94.2969 38° Northeast 371 427 11,700 1,260 Climbing Kansas City Center
07:15AM 39.7067 -94.2019 38° Northeast 386 444 13,400 1,440 Climbing Kansas City Center
07:16AM 39.7900 -94.1197 37° Northeast 392 451 14,700 780 Climbing Kansas City Center
07:17AM 39.8681 -93.9994 50° Northeast 414 476 15,000 600 Climbing Kansas City Center
07:18AM 39.9339 -93.8736 56° Northeast 423 487 16,000 1,200 Climbing Kansas City Center
07:19AM 39.9875 -93.7419 62° Northeast 417 480 17,500 1,500 Climbing Kansas City Center
07:20AM 40.0378 -93.6142 63° Northeast 404 465 19,100 1,500 Climbing Kansas City Center
07:21AM 40.0822 -93.4822 66° East 400 460 20,600 1,380 Climbing Kansas City Center
07:22AM 40.1122 -93.3436 74° East 399 459 21,900 1,140 Climbing Kansas City Center
07:23AM 40.1458 -93.2033 73° East 405 466 23,000 1,020 Climbing Kansas City Center
07:24AM 40.1794 -93.0619 73° East 410 472 24,000 1,080 Climbing Kansas City Center
07:25AM 40.2150 -92.9056 73° East 414 476 25,200 1,140 Climbing Kansas City Center
07:26AM 40.2481 -92.7689 72° East 413 475 26,400 1,140 Climbing Kansas City Center
07:27AM 40.2792 -92.6328 73° East 408 470 27,500 1,020 Climbing Kansas City Center
07:28AM 40.3164 -92.4731 73° East 410 472 28,500 720 Climbing Kansas City Center
07:29AM 40.3483 -92.3314 73° East 425 489 29,000 240 Climbing Kansas City Center
07:30AM 40.3822 -92.1792 74° East 434 499 29,000  Level Kansas City Center
07:31AM 40.4172 -92.0186 74° East 455 524 29,000  Level Kansas City Center
07:33AM 40.4544 -91.8547 73° East 469 540 29,000 240 Level Kansas City Center
07:34AM 40.4900 -91.6878 74° East 477 549 29,600 900 Climbing Kansas City Center
07:35AM 40.5256 -91.5264 74° East 470 541 30,900 660 Climbing Kansas City Center
07:36AM 40.5619 -91.3672 73° East 463 533 31,000  Climbing Kansas City Center
07:37AM 40.6164 -91.2086 66° East 467 537 31,000  Level Kansas City Center
07:38AM 40.6717 -91.0553 65° Northeast 462 532 31,000  Level Kansas City Center
07:39AM 40.7217 -90.9067 66° East 447 514 31,000  Level Kansas City Center
07:40AM 40.7839 -90.7297 65° Northeast 443 510 31,000  Level Kansas City Center
07:41AM 40.8344 -90.5747 67° East 453 521 31,000 -240 Level Kansas City Center
07:42AM 40.8886 -90.4122 66° East 473 544 30,600 -480 Descending Kansas City Center
07:42AM 40.8997 -90.3797 66° East 482 555 30,400 -1,260 Descending Chicago Center
07:43AM 40.9589 -90.2064 66° East 497 572 29,000 -1,380 Descending Chicago Center
07:44AM 41.0128 -90.0392 67° East 496 571 27,600 -1,440 Descending Chicago Center
07:45AM 41.0686 -89.8706 66° East 499 574 26,100 -1,620 Descending Chicago Center
07:46AM 41.1228 -89.7044 67° East 489 563 24,400 -1,200 Descending Chicago Center
07:47AM 41.1761 -89.5514 65° Northeast 454 522 23,700 -1,500 Descending Chicago Center
07:48AM 41.2344 -89.4053 62° Northeast 447 514 21,300 -2,400 Descending Chicago Center
07:49AM 41.2914 -89.2678 61° Northeast 426 490 18,800 -2,400 Descending Chicago Center
07:50AM 41.3531 -89.1089 63° Northeast 421 484 16,400 -2,160 Descending Chicago Center
07:51AM 41.4053 -88.9764 62° Northeast 409 471 14,400 -2,040 Descending Chicago Center
07:52AM 41.4556 -88.8508 62° Northeast 388 447 12,300 -1,680 Descending Chicago Center
07:53AM 41.5039 -88.7264 63° Northeast 381 438 11,000 -660 Descending Chicago Center
07:54AM 41.5517 -88.6058 62° Northeast 371 427 11,000 -360 Level Chicago Center
07:55AM 41.6114 -88.4611 61° Northeast 371 427 10,300 -540 Descending Chicago Center
07:56AM 41.6667 -88.3661 52° Northeast 325 374 10,000 -180 Descending Chicago Center
07:57AM 41.7192 -88.2758 52° Northeast 309 356 10,000 -60 Level Chicago Center
07:58AM 41.7706 -88.1883 52° Northeast 301 346 9,900 -540 Descending Chicago Center
07:59AM 41.8211 -88.1031 51° Northeast 293 337 8,900 -1,140 Descending Chicago Center
08:00AM 41.8678 -88.0175 54° Northeast 288 331 7,600 -1,200 Descending Chicago Center
08:01AM 41.8833 -87.9500 73° East 260 299 7,000 -420 Descending Chicago TRACON
08:02AM 41.8833 -87.8667 90° East 211 243 7,000  Level Chicago TRACON
08:03AM 41.8833 -87.8000 90° East 208 239 7,000 -600 Level Chicago TRACON
08:04AM 41.8833 -87.7167 90° East 201 231 5,800 -1,320 Descending Chicago TRACON
08:05AM 41.9167 -87.6667 48° Northeast 215 247 4,400 -1,200 Descending Chicago TRACON
08:06AM 41.9500 -87.7167 312° West 192 221 3,500 -1,140 Descending Chicago TRACON
08:07AM 41.9667 -87.7833 289° West 188 216 2,200 -1,080 Descending Chicago TRACON
08:08AM 41.9667 -87.8333 270° West 141 162 1,400 -840 Descending Chicago TRACON
08:11AM 41.9667 -87.9000 278° West  Level FlightAware Approximate